sensor_id;sensor_type;location;lat;lon;timestamp;pressure;altitude;pressure_sealevel;temperature;humidity
35704;BME280;21820;51.112;13.762;2023-08-08T00:00:08;99158.75;;;23.85;62.75
35704;BME280;21820;51.112;13.762;2023-08-08T00:02:35;99166.97;;;23.82;63.08
35704;BME280;21820;51.112;13.762;2023-08-08T00:05:00;99160.72;;;23.83;63.23
35704;BME280;21820;51.112;13.762;2023-08-08T00:07:26;99164.03;;;23.85;63.43
35704;BME280;21820;51.112;13.762;2023-08-08T00:09:55;99155.47;;;23.83;63.40
35704;BME280;21820;51.112;13.762;2023-08-08T00:12:20;99159.09;;;23.82;62.82
35704;BME280;21820;51.112;13.762;2023-08-08T00:14:45;99137.94;;;23.76;63.45
35704;BME280;21820;51.112;13.762;2023-08-08T00:17:11;99157.13;;;23.84;63.45
35704;BME280;21820;51.112;13.762;2023-08-08T00:19:36;99151.06;;;23.84;63.10
35704;BME280;21820;51.112;13.762;2023-08-08T00:22:01;99147.47;;;23.85;63.42
35704;BME280;21820;51.112;13.762;2023-08-08T00:24:27;99146.63;;;23.84;63.01
35704;BME280;21820;51.112;13.762;2023-08-08T00:26:52;99151.88;;;23.84;63.36
35704;BME280;21820;51.112;13.762;2023-08-08T00:29:17;99148.25;;;23.85;63.08
35704;BME280;21820;51.112;13.762;2023-08-08T00:31:43;99138.75;;;23.84;63.35
35704;BME280;21820;51.112;13.762;2023-08-08T00:34:08;99148.25;;;23.85;63.14
35704;BME280;21820;51.112;13.762;2023-08-08T00:36:33;99135.63;;;23.81;62.92
35704;BME280;21820;51.112;13.762;2023-08-08T00:38:59;99148.25;;;23.85;63.33
35704;BME280;21820;51.112;13.762;2023-08-08T00:41:25;99141.38;;;23.84;62.86
35704;BME280;21820;51.112;13.762;2023-08-08T00:43:50;99139.72;;;23.83;62.67
35704;BME280;21820;51.112;13.762;2023-08-08T00:46:18;99147.47;;;23.85;63.20
35704;BME280;21820;51.112;13.762;2023-08-08T00:48:45;99151.88;;;23.84;62.70
35704;BME280;21820;51.112;13.762;2023-08-08T00:51:11;99146.97;;;23.81;62.71
35704;BME280;21820;51.112;13.762;2023-08-08T00:53:36;99151.06;;;23.84;63.09
35704;BME280;21820;51.112;13.762;2023-08-08T00:56:02;99146.81;;;23.83;63.13
35704;BME280;21820;51.112;13.762;2023-08-08T00:58:28;99141.72;;;23.81;62.74
35704;BME280;21820;51.112;13.762;2023-08-08T01:00:54;99142.34;;;23.83;62.79
35704;BME280;21820;51.112;13.762;2023-08-08T01:03:25;99147.47;;;23.85;62.59
35704;BME280;21820;51.112;13.762;2023-08-08T01:05:55;99145.63;;;23.85;63.58
35704;BME280;21820;51.112;13.762;2023-08-08T01:08:27;99139.72;;;23.83;63.27
35704;BME280;21820;51.112;13.762;2023-08-08T01:10:57;99141.38;;;23.84;63.37
35704;BME280;21820;51.112;13.762;2023-08-08T01:13:25;99145.81;;;23.84;63.09
35704;BME280;21820;51.112;13.762;2023-08-08T01:15:53;99133.19;;;23.79;62.97
35704;BME280;21820;51.112;13.762;2023-08-08T01:18:20;99139.72;;;23.83;62.78
35704;BME280;21820;51.112;13.762;2023-08-08T01:20:46;99134.47;;;23.83;63.38
35704;BME280;21820;51.112;13.762;2023-08-08T01:23:19;99135.13;;;23.85;63.68
35704;BME280;21820;51.112;13.762;2023-08-08T01:25:49;99129.22;;;23.83;63.10
35704;BME280;21820;51.112;13.762;2023-08-08T01:28:15;99112.84;;;23.73;63.01
35704;BME280;21820;51.112;13.762;2023-08-08T01:30:41;99105.94;;;23.72;63.42
35704;BME280;21820;51.112;13.762;2023-08-08T01:33:08;99115.31;;;23.75;62.79
35704;BME280;21820;51.112;13.762;2023-08-08T01:35:37;99124.97;;;23.82;63.36
35704;BME280;21820;51.112;13.762;2023-08-08T01:38:30;99124.81;;;23.84;63.78
35704;BME280;21820;51.112;13.762;2023-08-08T01:40:57;99125.97;;;23.81;63.54
35704;BME280;21820;51.112;13.762;2023-08-08T01:43:22;99122.34;;;23.90;63.62
35704;BME280;21820;51.112;13.762;2023-08-08T01:45:50;99127.59;;;23.82;62.89
35704;BME280;21820;51.112;13.762;2023-08-08T01:48:16;99124.97;;;23.82;63.41
35704;BME280;21820;51.112;13.762;2023-08-08T01:50:41;99131.84;;;23.83;63.38
35704;BME280;21820;51.112;13.762;2023-08-08T01:53:07;99116.44;;;23.72;63.40
35704;BME280;21820;51.112;13.762;2023-08-08T01:55:32;99130.38;;;23.81;62.86
35704;BME280;21820;51.112;13.762;2023-08-08T01:57:57;99125.97;;;23.81;63.59
35704;BME280;21820;51.112;13.762;2023-08-08T02:00:23;99126.31;;;23.78;63.22
35704;BME280;21820;51.112;13.762;2023-08-08T02:02:48;99120.06;;;23.71;63.21
35704;BME280;21820;51.112;13.762;2023-08-08T02:05:14;99136.47;;;23.81;62.96
35704;BME280;21820;51.112;13.762;2023-08-08T02:07:39;99140.06;;;23.80;63.18
35704;BME280;21820;51.112;13.762;2023-08-08T02:10:05;99139.09;;;23.81;63.21
35704;BME280;21820;51.112;13.762;2023-08-08T02:12:30;99134.81;;;23.80;63.21
35704;BME280;21820;51.112;13.762;2023-08-08T02:14:58;99127.94;;;23.79;62.79
35704;BME280;21820;51.112;13.762;2023-08-08T02:17:25;99133.19;;;23.79;63.57
35704;BME280;21820;51.112;13.762;2023-08-08T02:19:51;99128.94;;;23.78;63.17
35704;BME280;21820;51.112;13.762;2023-08-08T02:22:17;99117.78;;;23.68;62.86
35704;BME280;21820;51.112;13.762;2023-08-08T02:24:42;99126.94;;;23.80;62.96
35704;BME280;21820;51.112;13.762;2023-08-08T02:27:08;99125.31;;;23.79;62.98
35704;BME280;21820;51.112;13.762;2023-08-08T02:29:33;99130.56;;;23.79;63.26
35704;BME280;21820;51.112;13.762;2023-08-08T02:31:58;99129.56;;;23.80;63.24
35704;BME280;21820;51.112;13.762;2023-08-08T02:34:24;99121.84;;;23.79;63.21
35704;BME280;21820;51.112;13.762;2023-08-08T02:36:49;99129.56;;;23.80;63.22
35704;BME280;21820;51.112;13.762;2023-08-08T02:39:14;99122.69;;;23.79;63.05
35704;BME280;21820;51.112;13.762;2023-08-08T02:41:40;99127.94;;;23.79;63.51
35704;BME280;21820;51.112;13.762;2023-08-08T02:44:06;99122.69;;;23.79;63.32
35704;BME280;21820;51.112;13.762;2023-08-08T02:46:31;99121.06;;;23.78;63.51
35704;BME280;21820;51.112;13.762;2023-08-08T02:48:57;99125.31;;;23.79;63.52
35704;BME280;21820;51.112;13.762;2023-08-08T02:51:22;99103.81;;;23.68;63.54
35704;BME280;21820;51.112;13.762;2023-08-08T02:53:48;99131.56;;;23.78;63.75
35704;BME280;21820;51.112;13.762;2023-08-08T02:56:13;99121.06;;;23.78;62.98
35704;BME280;21820;51.112;13.762;2023-08-08T02:58:38;99123.69;;;23.78;62.91
35704;BME280;21820;51.112;13.762;2023-08-08T03:01:04;99127.94;;;23.79;63.46
35704;BME280;21820;51.112;13.762;2023-08-08T03:03:29;99123.97;;;23.75;63.20
35704;BME280;21820;51.112;13.762;2023-08-08T03:05:54;99133.19;;;23.79;63.58
35704;BME280;21820;51.112;13.762;2023-08-08T03:08:20;99128.94;;;23.78;63.70
35704;BME280;21820;51.112;13.762;2023-08-08T03:10:45;99120.56;;;23.75;63.57
35704;BME280;21820;51.112;13.762;2023-08-08T03:13:10;99127.94;;;23.79;62.89
35704;BME280;21820;51.112;13.762;2023-08-08T03:15:36;99126.31;;;23.78;63.48
35704;BME280;21820;51.112;13.762;2023-08-08T03:18:02;99127.44;;;23.76;62.96
35704;BME280;21820;51.112;13.762;2023-08-08T03:20:27;99113.50;;;23.67;63.52
35704;BME280;21820;51.112;13.762;2023-08-08T03:22:53;99125.47;;;23.78;62.91
35704;BME280;21820;51.112;13.762;2023-08-08T03:25:18;99127.09;;;23.79;62.91
35704;BME280;21820;51.112;13.762;2023-08-08T03:27:43;99121.06;;;23.78;63.48
35704;BME280;21820;51.112;13.762;2023-08-08T03:30:09;99118.44;;;23.78;62.91
35704;BME280;21820;51.112;13.762;2023-08-08T03:32:34;99120.22;;;23.78;63.29
35704;BME280;21820;51.112;13.762;2023-08-08T03:35:00;99104.66;;;23.68;63.47
35704;BME280;21820;51.112;13.762;2023-08-08T03:37:25;99121.19;;;23.77;63.14
35704;BME280;21820;51.112;13.762;2023-08-08T03:39:50;99116.78;;;23.77;63.58
35704;BME280;21820;51.112;13.762;2023-08-08T03:42:16;99123.81;;;23.77;62.83
35704;BME280;21820;51.112;13.762;2023-08-08T03:44:41;99119.72;;;23.74;63.63
35704;BME280;21820;51.112;13.762;2023-08-08T03:47:06;99102.34;;;23.65;63.36
35704;BME280;21820;51.112;13.762;2023-08-08T03:49:32;99124.66;;;23.77;63.68
35704;BME280;21820;51.112;13.762;2023-08-08T03:51:58;99121.53;;;23.74;62.81
35704;BME280;21820;51.112;13.762;2023-08-08T03:54:23;99129.91;;;23.77;63.60
35704;BME280;21820;51.112;13.762;2023-08-08T03:56:49;99123.03;;;23.76;62.95
35704;BME280;21820;51.112;13.762;2023-08-08T03:59:14;99124.66;;;23.77;63.61
35704;BME280;21820;51.112;13.762;2023-08-08T04:01:39;99117.78;;;23.76;63.52
35704;BME280;21820;51.112;13.762;2023-08-08T04:04:05;99122.19;;;23.76;63.55
35704;BME280;21820;51.112;13.762;2023-08-08T04:06:30;99117.78;;;23.76;62.92
35704;BME280;21820;51.112;13.762;2023-08-08T04:08:56;99119.06;;;23.72;63.26
35704;BME280;21820;51.112;13.762;2023-08-08T04:11:21;99119.56;;;23.76;63.50
35704;BME280;21820;51.112;13.762;2023-08-08T04:13:46;99113.47;;;23.75;63.29
35704;BME280;21820;51.112;13.762;2023-08-08T04:16:12;99123.03;;;23.76;63.51
35704;BME280;21820;51.112;13.762;2023-08-08T04:18:37;99105.59;;;23.75;62.89
35704;BME280;21820;51.112;13.762;2023-08-08T04:21:03;99108.06;;;23.77;63.44
35704;BME280;21820;51.112;13.762;2023-08-08T04:23:29;99109.91;;;23.76;62.96
35704;BME280;21820;51.112;13.762;2023-08-08T04:25:54;99106.44;;;23.76;63.55
35704;BME280;21820;51.112;13.762;2023-08-08T04:28:20;99091.19;;;23.63;63.00
35704;BME280;21820;51.112;13.762;2023-08-08T04:30:45;99107.28;;;23.76;63.29
35704;BME280;21820;51.112;13.762;2023-08-08T04:33:10;99092.84;;;23.64;63.25
35704;BME280;21820;51.112;13.762;2023-08-08T04:35:36;99106.44;;;23.76;63.28
35704;BME280;21820;51.112;13.762;2023-08-08T04:38:01;99105.59;;;23.75;63.04
35704;BME280;21820;51.112;13.762;2023-08-08T04:40:27;99121.34;;;23.75;63.27
35704;BME280;21820;51.112;13.762;2023-08-08T04:42:52;99119.72;;;23.74;63.24
35704;BME280;21820;51.112;13.762;2023-08-08T04:45:18;99128.28;;;23.76;63.25
35704;BME280;21820;51.112;13.762;2023-08-08T04:47:43;99124.81;;;23.76;63.23
35704;BME280;21820;51.112;13.762;2023-08-08T04:50:10;99123.97;;;23.75;62.95
35704;BME280;21820;51.112;13.762;2023-08-08T04:52:35;99124.97;;;23.74;63.68
35704;BME280;21820;51.112;13.762;2023-08-08T04:55:01;99124.97;;;23.74;63.28
35704;BME280;21820;51.112;13.762;2023-08-08T04:57:26;99131.84;;;23.75;63.58
35704;BME280;21820;51.112;13.762;2023-08-08T04:59:51;99137.09;;;23.75;62.86
35704;BME280;21820;51.112;13.762;2023-08-08T05:02:17;99129.22;;;23.75;63.65
35704;BME280;21820;51.112;13.762;2023-08-08T05:04:42;99131.06;;;23.75;63.23
35704;BME280;21820;51.112;13.762;2023-08-08T05:07:07;99131.06;;;23.75;62.82
35704;BME280;21820;51.112;13.762;2023-08-08T05:09:33;99135.47;;;23.74;62.89
35704;BME280;21820;51.112;13.762;2023-08-08T05:11:58;99129.91;;;23.69;63.28
35704;BME280;21820;51.112;13.762;2023-08-08T05:14:23;99132.19;;;23.72;63.21
35704;BME280;21820;51.112;13.762;2023-08-08T05:16:49;99130.22;;;23.74;63.37
35704;BME280;21820;51.112;13.762;2023-08-08T05:19:14;99122.34;;;23.74;63.64
35704;BME280;21820;51.112;13.762;2023-08-08T05:21:39;99130.22;;;23.74;63.29
35704;BME280;21820;51.112;13.762;2023-08-08T05:24:05;99123.97;;;23.75;63.26
35704;BME280;21820;51.112;13.762;2023-08-08T05:26:30;99118.91;;;23.74;63.29
35704;BME280;21820;51.112;13.762;2023-08-08T05:28:56;99114.00;;;23.71;62.98
35704;BME280;21820;51.112;13.762;2023-08-08T05:31:21;99122.34;;;23.74;63.68
35704;BME280;21820;51.112;13.762;2023-08-08T05:33:48;99111.19;;;23.64;63.70
35704;BME280;21820;51.112;13.762;2023-08-08T05:36:14;99124.16;;;23.74;63.64
35704;BME280;21820;51.112;13.762;2023-08-08T05:38:39;99116.28;;;23.74;63.31
35704;BME280;21820;51.112;13.762;2023-08-08T05:41:06;99118.09;;;23.73;63.23
35704;BME280;21820;51.112;13.762;2023-08-08T05:43:31;99109.41;;;23.73;63.76
35704;BME280;21820;51.112;13.762;2023-08-08T05:45:56;99124.97;;;23.74;63.04
35704;BME280;21820;51.112;13.762;2023-08-08T05:48:22;99119.72;;;23.74;63.63
35704;BME280;21820;51.112;13.762;2023-08-08T05:50:47;99127.13;;;23.71;63.41
35704;BME280;21820;51.112;13.762;2023-08-08T05:53:13;99121.69;;;23.72;62.64
35704;BME280;21820;51.112;13.762;2023-08-08T05:55:41;99124.31;;;23.72;62.62
35704;BME280;21820;51.112;13.762;2023-08-08T05:58:07;99126.94;;;23.72;61.30
35704;BME280;21820;51.112;13.762;2023-08-08T06:00:32;99121.34;;;23.75;60.47
35704;BME280;21820;51.112;13.762;2023-08-08T06:02:57;99132.84;;;23.74;60.34
35704;BME280;21820;51.112;13.762;2023-08-08T06:05:23;99119.06;;;23.72;60.35
35704;BME280;21820;51.112;13.762;2023-08-08T06:07:49;99132.19;;;23.72;60.08
35704;BME280;21820;51.112;13.762;2023-08-08T06:10:14;99136.63;;;23.72;59.93
35704;BME280;21820;51.112;13.762;2023-08-08T06:12:39;99135.81;;;23.71;60.34
35704;BME280;21820;51.112;13.762;2023-08-08T06:15:05;99133.53;;;23.68;59.04
35704;BME280;21820;51.112;13.762;2023-08-08T06:17:31;99137.44;;;23.72;58.22
35704;BME280;21820;51.112;13.762;2023-08-08T06:19:56;99136.63;;;23.72;58.71
35704;BME280;21820;51.112;13.762;2023-08-08T06:22:23;99134.81;;;23.72;58.99
35704;BME280;21820;51.112;13.762;2023-08-08T06:24:48;99139.41;;;23.70;59.28
35704;BME280;21820;51.112;13.762;2023-08-08T06:27:13;99149.91;;;23.70;57.72
35704;BME280;21820;51.112;13.762;2023-08-08T06:29:39;99145.66;;;23.69;58.40
35704;BME280;21820;51.112;13.762;2023-08-08T06:32:04;99146.66;;;23.68;58.16
35704;BME280;21820;51.112;13.762;2023-08-08T06:34:30;99143.03;;;23.69;58.40
35704;BME280;21820;51.112;13.762;2023-08-08T06:36:55;99148.28;;;23.69;58.15
35704;BME280;21820;51.112;13.762;2023-08-08T06:39:20;99143.03;;;23.69;58.46
35704;BME280;21820;51.112;13.762;2023-08-08T06:41:47;99127.94;;;23.63;58.92
35704;BME280;21820;51.112;13.762;2023-08-08T06:44:12;99142.03;;;23.70;58.08
35704;BME280;21820;51.112;13.762;2023-08-08T06:46:38;99133.69;;;23.67;58.27
35704;BME280;21820;51.112;13.762;2023-08-08T06:49:03;99146.31;;;23.71;57.33
35704;BME280;21820;51.112;13.762;2023-08-08T06:51:29;99135.81;;;23.71;57.14
35704;BME280;21820;51.112;13.762;2023-08-08T06:53:55;99141.88;;;23.72;57.53
35704;BME280;21820;51.112;13.762;2023-08-08T06:56:20;99138.28;;;23.73;58.29
35704;BME280;21820;51.112;13.762;2023-08-08T06:58:46;99140.72;;;23.74;57.67
35704;BME280;21820;51.112;13.762;2023-08-08T07:01:11;99142.69;;;23.72;57.95
35704;BME280;21820;51.112;13.762;2023-08-08T07:03:37;99137.44;;;23.72;57.27
35704;BME280;21820;51.112;13.762;2023-08-08T07:06:03;99136.63;;;23.72;56.94
35704;BME280;21820;51.112;13.762;2023-08-08T07:08:28;99135.00;;;23.71;57.48
35704;BME280;21820;51.112;13.762;2023-08-08T07:10:56;99131.88;;;23.67;55.46
35704;BME280;21820;51.112;13.762;2023-08-08T07:13:21;99126.78;;;23.66;56.87
35704;BME280;21820;51.112;13.762;2023-08-08T07:15:47;99124.50;;;23.63;56.41
35704;BME280;21820;51.112;13.762;2023-08-08T07:18:12;99115.44;;;23.65;55.87
35704;BME280;21820;51.112;13.762;2023-08-08T07:20:37;99107.91;;;23.62;57.47
35704;BME280;21820;51.112;13.762;2023-08-08T07:23:04;99114.66;;;23.65;56.67
35704;BME280;21820;51.112;13.762;2023-08-08T07:25:29;99108.56;;;23.64;56.13
35704;BME280;21820;51.112;13.762;2023-08-08T07:27:55;99116.28;;;23.66;56.35
35704;BME280;21820;51.112;13.762;2023-08-08T07:30:20;99111.69;;;23.60;56.14
35704;BME280;21820;51.112;13.762;2023-08-08T07:32:45;99132.88;;;23.66;56.51
35704;BME280;21820;51.112;13.762;2023-08-08T07:35:11;99129.91;;;23.61;56.72
35704;BME280;21820;51.112;13.762;2023-08-08T07:37:36;99124.81;;;23.60;55.49
35704;BME280;21820;51.112;13.762;2023-08-08T07:40:02;99127.13;;;23.63;56.57
35704;BME280;21820;51.112;13.762;2023-08-08T07:42:29;99125.31;;;23.63;55.82
35704;BME280;21820;51.112;13.762;2023-08-08T07:44:54;99122.69;;;23.63;55.88
35704;BME280;21820;51.112;13.762;2023-08-08T07:47:20;99121.88;;;23.63;55.80
35704;BME280;21820;51.112;13.762;2023-08-08T07:49:45;99125.97;;;23.57;54.98
35704;BME280;21820;51.112;13.762;2023-08-08T07:52:11;99119.41;;;23.61;55.73
35704;BME280;21820;51.112;13.762;2023-08-08T07:54:36;99123.34;;;23.57;55.87
35704;BME280;21820;51.112;13.762;2023-08-08T07:57:01;99116.78;;;23.53;55.44
35704;BME280;21820;51.112;13.762;2023-08-08T07:59:27;99123.84;;;23.53;56.01
35704;BME280;21820;51.112;13.762;2023-08-08T08:01:52;99124.00;;;23.51;55.27
35704;BME280;21820;51.112;13.762;2023-08-08T08:04:17;99127.63;;;23.50;56.04
35704;BME280;21820;51.112;13.762;2023-08-08T08:06:43;99126.47;;;23.53;55.56
35704;BME280;21820;51.112;13.762;2023-08-08T08:09:08;99129.25;;;23.51;55.98
35704;BME280;21820;51.112;13.762;2023-08-08T08:11:34;99130.88;;;23.52;56.20
35704;BME280;21820;51.112;13.762;2023-08-08T08:13:59;99131.38;;;23.56;55.39
35704;BME280;21820;51.112;13.762;2023-08-08T08:16:24;99139.25;;;23.56;55.81
35704;BME280;21820;51.112;13.762;2023-08-08T08:18:50;99132.19;;;23.56;55.50
35704;BME280;21820;51.112;13.762;2023-08-08T08:21:15;99125.97;;;23.49;55.62
35704;BME280;21820;51.112;13.762;2023-08-08T08:23:43;99127.28;;;23.53;55.39
35704;BME280;21820;51.112;13.762;2023-08-08T08:26:08;99103.34;;;23.48;55.94
35704;BME280;21820;51.112;13.762;2023-08-08T08:28:33;99126.78;;;23.50;56.23
35704;BME280;21820;51.112;13.762;2023-08-08T08:31:04;99122.03;;;23.53;56.95
35704;BME280;21820;51.112;13.762;2023-08-08T08:33:29;99118.25;;;23.48;56.33
35704;BME280;21820;51.112;13.762;2023-08-08T08:35:55;99121.22;;;23.53;56.43
35704;BME280;21820;51.112;13.762;2023-08-08T08:38:20;99113.84;;;23.48;55.78
35704;BME280;21820;51.112;13.762;2023-08-08T08:40:46;99114.78;;;23.47;55.80
35704;BME280;21820;51.112;13.762;2023-08-08T08:43:13;99118.25;;;23.48;56.27
35704;BME280;21820;51.112;13.762;2023-08-08T08:45:40;99094.63;;;23.40;55.94
35704;BME280;21820;51.112;13.762;2023-08-08T08:48:09;99111.84;;;23.42;54.99
35704;BME280;21820;51.112;13.762;2023-08-08T08:50:37;99116.13;;;23.35;55.52
35704;BME280;21820;51.112;13.762;2023-08-08T08:53:05;99121.03;;;23.38;55.49
35704;BME280;21820;51.112;13.762;2023-08-08T08:55:30;99095.44;;;23.32;55.74
35704;BME280;21820;51.112;13.762;2023-08-08T08:57:56;99113.16;;;23.38;55.21
35704;BME280;21820;51.112;13.762;2023-08-08T09:00:21;99112.50;;;23.44;55.43
35704;BME280;21820;51.112;13.762;2023-08-08T09:02:48;99119.53;;;23.44;56.14
35704;BME280;21820;51.112;13.762;2023-08-08T09:05:15;99119.53;;;23.44;56.29
35704;BME280;21820;51.112;13.762;2023-08-08T09:07:40;99116.13;;;23.43;54.45
35704;BME280;21820;51.112;13.762;2023-08-08T09:10:06;99117.75;;;23.44;56.14
35704;BME280;21820;51.112;13.762;2023-08-08T09:12:33;99126.28;;;23.46;55.90
35704;BME280;21820;51.112;13.762;2023-08-08T09:14:59;99130.53;;;23.55;55.47
35704;BME280;21820;51.112;13.762;2023-08-08T09:17:27;99129.06;;;23.37;55.91
35704;BME280;21820;51.112;13.762;2023-08-08T09:19:54;99123.16;;;23.27;54.24
35704;BME280;21820;51.112;13.762;2023-08-08T09:22:20;99119.66;;;23.26;55.44
35704;BME280;21820;51.112;13.762;2023-08-08T09:24:46;99142.69;;;23.40;56.21
35704;BME280;21820;51.112;13.762;2023-08-08T09:27:11;99130.88;;;23.44;55.84
35704;BME280;21820;51.112;13.762;2023-08-08T09:29:37;99152.84;;;23.43;54.82
35704;BME280;21820;51.112;13.762;2023-08-08T09:32:04;99133.81;;;23.41;55.65
35704;BME280;21820;51.112;13.762;2023-08-08T09:34:30;99134.16;;;23.38;55.52
35704;BME280;21820;51.112;13.762;2023-08-08T09:36:55;99132.19;;;23.40;55.48
35704;BME280;21820;51.112;13.762;2023-08-08T09:39:21;99127.91;;;23.39;56.03
35704;BME280;21820;51.112;13.762;2023-08-08T09:41:47;99101.69;;;23.31;56.29
35704;BME280;21820;51.112;13.762;2023-08-08T09:44:12;99134.00;;;23.48;55.76
35704;BME280;21820;51.112;13.762;2023-08-08T09:46:39;99132.03;;;23.42;56.39
35704;BME280;21820;51.112;13.762;2023-08-08T09:49:05;99123.16;;;23.43;55.31
35704;BME280;21820;51.112;13.762;2023-08-08T09:51:31;99097.75;;;23.35;55.49
35704;BME280;21820;51.112;13.762;2023-08-08T09:53:59;99126.28;;;23.46;56.21
35704;BME280;21820;51.112;13.762;2023-08-08T09:56:25;99125.28;;;23.47;56.36
35704;BME280;21820;51.112;13.762;2023-08-08T09:58:52;99126.28;;;23.46;55.99
35704;BME280;21820;51.112;13.762;2023-08-08T10:01:18;99123.00;;;23.52;56.31
35704;BME280;21820;51.112;13.762;2023-08-08T10:03:44;99126.28;;;23.46;55.50
35704;BME280;21820;51.112;13.762;2023-08-08T10:06:10;99110.22;;;23.33;56.03
35704;BME280;21820;51.112;13.762;2023-08-08T10:08:35;99131.53;;;23.46;55.73
35704;BME280;21820;51.112;13.762;2023-08-08T10:11:01;99130.53;;;23.47;55.78
35704;BME280;21820;51.112;13.762;2023-08-08T10:13:27;99131.88;;;23.43;55.04
35704;BME280;21820;51.112;13.762;2023-08-08T10:15:54;99121.38;;;23.43;55.60
35704;BME280;21820;51.112;13.762;2023-08-08T10:18:23;99118.59;;;23.45;55.97
35704;BME280;21820;51.112;13.762;2023-08-08T10:20:50;99119.06;;;23.40;55.05
35704;BME280;21820;51.112;13.762;2023-08-08T10:23:19;99129.06;;;23.45;55.35
35704;BME280;21820;51.112;13.762;2023-08-08T10:25:46;99125.63;;;23.44;55.14
35704;BME280;21820;51.112;13.762;2023-08-08T10:28:13;99124.00;;;23.43;55.25
35704;BME280;21820;51.112;13.762;2023-08-08T10:30:47;99122.16;;;23.44;56.67
35704;BME280;21820;51.112;13.762;2023-08-08T10:33:18;99115.13;;;23.44;56.26
35704;BME280;21820;51.112;13.762;2023-08-08T10:38:21;99122.84;;;23.54;56.18
35704;BME280;21820;51.112;13.762;2023-08-08T10:40:47;99107.25;;;23.44;55.62
35704;BME280;21820;51.112;13.762;2023-08-08T10:43:12;99105.63;;;23.43;55.65
35704;BME280;21820;51.112;13.762;2023-08-08T10:45:41;99090.53;;;23.37;56.52
35704;BME280;21820;51.112;13.762;2023-08-08T10:48:10;99085.28;;;23.37;55.86
35704;BME280;21820;51.112;13.762;2023-08-08T10:50:40;99082.34;;;23.40;56.71
35704;BME280;21820;51.112;13.762;2023-08-08T10:53:08;99095.81;;;23.45;56.75
35704;BME280;21820;51.112;13.762;2023-08-08T10:55:36;99106.28;;;23.45;55.45
35704;BME280;21820;51.112;13.762;2023-08-08T10:58:09;99091.50;;;23.44;56.69
35704;BME280;21820;51.112;13.762;2023-08-08T11:00:37;99088.22;;;23.42;55.59
35704;BME280;21820;51.112;13.762;2023-08-08T11:03:05;99085.44;;;23.44;56.47
35704;BME280;21820;51.112;13.762;2023-08-08T11:05:32;99087.94;;;23.45;56.25
35704;BME280;21820;51.112;13.762;2023-08-08T11:07:59;99085.44;;;23.44;56.00
35704;BME280;21820;51.112;13.762;2023-08-08T11:10:24;99085.59;;;23.42;56.56
35704;BME280;21820;51.112;13.762;2023-08-08T11:13:04;99078.56;;;23.43;57.09
35704;BME280;21820;51.112;13.762;2023-08-08T11:15:32;99064.63;;;23.34;56.29
35704;BME280;21820;51.112;13.762;2023-08-08T11:17:59;99055.09;;;23.25;56.10
35704;BME280;21820;51.112;13.762;2023-08-08T11:20:24;99078.72;;;23.41;55.61
35704;BME280;21820;51.112;13.762;2023-08-08T11:22:54;99070.38;;;23.38;56.02
35704;BME280;21820;51.112;13.762;2023-08-08T11:25:20;99076.94;;;23.34;55.00
35704;BME280;21820;51.112;13.762;2023-08-08T11:27:53;99064.28;;;23.37;56.31
35704;BME280;21820;51.112;13.762;2023-08-08T11:30:19;99053.16;;;23.35;55.55
35704;BME280;21820;51.112;13.762;2023-08-08T11:32:45;99058.25;;;23.37;55.41
35704;BME280;21820;51.112;13.762;2023-08-08T11:35:11;99053.78;;;23.37;55.87
35704;BME280;21820;51.112;13.762;2023-08-08T11:37:37;99047.25;;;23.33;55.40
35704;BME280;21820;51.112;13.762;2023-08-08T11:40:03;99060.69;;;23.38;55.36
35704;BME280;21820;51.112;13.762;2023-08-08T11:42:31;99061.53;;;23.39;54.90
35704;BME280;21820;51.112;13.762;2023-08-08T11:44:57;99051.84;;;23.39;55.64
35704;BME280;21820;51.112;13.762;2023-08-08T11:47:25;99053.66;;;23.39;55.94
35704;BME280;21820;51.112;13.762;2023-08-08T11:49:51;99043.63;;;23.34;56.17
35704;BME280;21820;51.112;13.762;2023-08-08T11:52:18;99018.06;;;23.28;55.63
35704;BME280;21820;51.112;13.762;2023-08-08T11:54:44;99033.63;;;23.38;55.43
35704;BME280;21820;51.112;13.762;2023-08-08T11:57:09;99030.50;;;23.42;55.20
35704;BME280;21820;51.112;13.762;2023-08-08T11:59:35;99004.94;;;23.36;55.29
35704;BME280;21820;51.112;13.762;2023-08-08T12:02:01;99013.47;;;23.38;54.09
35704;BME280;21820;51.112;13.762;2023-08-08T12:04:27;99013.47;;;23.38;54.28
35704;BME280;21820;51.112;13.762;2023-08-08T12:07:00;99006.91;;;23.42;55.98
35704;BME280;21820;51.112;13.762;2023-08-08T12:09:33;99019.22;;;23.42;55.93
35704;BME280;21820;51.112;13.762;2023-08-08T12:12:00;99020.34;;;23.39;54.90
35704;BME280;21820;51.112;13.762;2023-08-08T12:14:25;99009.84;;;23.39;54.66
35704;BME280;21820;51.112;13.762;2023-08-08T12:16:51;99010.34;;;23.43;55.26
35704;BME280;21820;51.112;13.762;2023-08-08T12:19:16;99007.56;;;23.44;55.17
35704;BME280;21820;51.112;13.762;2023-08-08T12:21:46;99005.94;;;23.43;55.52
35704;BME280;21820;51.112;13.762;2023-08-08T12:24:11;99014.47;;;23.45;54.68
35704;BME280;21820;51.112;13.762;2023-08-08T12:26:37;99023.63;;;23.41;54.75
35704;BME280;21820;51.112;13.762;2023-08-08T12:29:02;99006.91;;;23.42;54.19
35704;BME280;21820;51.112;13.762;2023-08-08T12:31:28;99001.81;;;23.41;55.26
35704;BME280;21820;51.112;13.762;2023-08-08T12:33:53;99009.53;;;23.42;55.04
35704;BME280;21820;51.112;13.762;2023-08-08T12:36:19;99017.22;;;23.44;55.24
35704;BME280;21820;51.112;13.762;2023-08-08T12:38:44;99029.53;;;23.43;54.73
35704;BME280;21820;51.112;13.762;2023-08-08T12:41:11;99019.38;;;23.48;55.43
35704;BME280;21820;51.112;13.762;2023-08-08T12:43:36;99025.94;;;23.44;55.68
35704;BME280;21820;51.112;13.762;2023-08-08T12:46:01;99026.09;;;23.43;55.40